createdAt,value
2018-02-25T00:01:28.089Z,90.00
2018-02-25T00:03:54.458Z,90.20
2018-02-25T00:06:20.754Z,90.10
2018-02-25T00:08:47.068Z,90.50
2018-02-25T00:11:14.085Z,90.70
2018-02-25T00:13:40.304Z,90.80
2018-02-25T00:16:06.556Z,90.50
2018-02-25T00:18:33.538Z,90.40
2018-02-25T00:21:00.516Z,90.40
2018-02-25T00:23:26.770Z,90.10
2018-02-25T00:25:52.985Z,89.40
2018-02-25T00:28:20.029Z,90.50
2018-02-25T00:30:46.236Z,90.50
2018-02-25T00:33:12.481Z,90.30
2018-02-25T00:35:38.647Z,90.20
2018-02-25T00:38:04.872Z,90.50
2018-02-25T00:40:31.041Z,91.60
2018-02-25T00:42:57.200Z,90.20
2018-02-25T00:45:24.145Z,91.40
2018-02-25T00:47:51.045Z,90.70
2018-02-25T00:50:17.283Z,90.70
2018-02-25T00:52:43.863Z,90.70
2018-02-25T00:55:10.194Z,91.00
2018-02-25T00:57:36.434Z,90.80
2018-02-25T01:00:02.744Z,90.80
2018-02-25T01:02:29.653Z,90.80
2018-02-25T01:04:55.815Z,90.80
2018-02-25T01:07:22.767Z,90.90
2018-02-25T01:09:48.921Z,90.90
2018-02-25T01:12:15.130Z,90.70
2018-02-25T01:14:41.339Z,91.20
2018-02-25T01:17:08.705Z,91.20
2018-02-25T01:19:34.933Z,91.30
2018-02-25T01:22:01.206Z,90.60
2018-02-25T01:24:27.392Z,92.00
2018-02-25T01:26:53.631Z,91.60
2018-02-25T01:29:19.885Z,90.80
2018-02-25T01:31:46.084Z,90.80
2018-02-25T01:34:12.295Z,91.40
2018-02-25T01:36:38.518Z,91.30
2018-02-25T01:39:05.447Z,90.80
2018-02-25T01:41:31.671Z,90.80
2018-02-25T01:43:57.829Z,91.20
2018-02-25T01:46:24.066Z,91.60
2018-02-25T01:48:50.258Z,93.20
2018-02-25T01:51:17.195Z,91.50
2018-02-25T01:53:44.183Z,92.40
2018-02-25T01:56:10.491Z,92.20
2018-02-25T01:58:36.739Z,91.90
2018-02-25T02:01:02.900Z,92.30
2018-02-25T02:03:29.067Z,93.50
2018-02-25T02:05:55.992Z,91.70
2018-02-25T02:08:22.174Z,91.70
2018-02-25T02:10:48.417Z,92.20
2018-02-25T02:13:14.661Z,92.70
2018-02-25T02:15:40.900Z,92.40
2018-02-25T02:18:07.834Z,93.00
2018-02-25T02:20:34.023Z,93.00
2018-02-25T02:23:00.268Z,93.00
2018-02-25T02:25:26.444Z,92.10
2018-02-25T02:27:53.374Z,92.70
2018-02-25T02:30:19.608Z,92.70
2018-02-25T02:32:46.545Z,92.10
2018-02-25T02:35:13.490Z,92.10
2018-02-25T02:37:39.745Z,92.10
2018-02-25T02:40:05.982Z,92.10
2018-02-25T02:42:32.200Z,92.50
2018-02-25T02:44:58.367Z,92.50
2018-02-25T02:47:24.624Z,92.80
2018-02-25T02:49:51.593Z,92.90
2018-02-25T02:52:17.792Z,92.80
2018-02-25T02:54:44.762Z,92.70
2018-02-25T02:57:10.986Z,92.70
2018-02-25T02:59:37.181Z,92.60
2018-02-25T03:02:03.378Z,92.80
2018-02-25T03:04:29.520Z,92.70
2018-02-25T03:06:55.748Z,93.40
2018-02-25T03:09:21.951Z,92.20
2018-02-25T03:11:48.170Z,93.80
2018-02-25T03:14:14.334Z,92.80
2018-02-25T03:16:41.287Z,92.20
2018-02-25T03:19:07.481Z,92.20
2018-02-25T03:21:33.641Z,93.10
2018-02-25T03:23:59.848Z,93.60
2018-02-25T03:26:26.020Z,92.70
2018-02-25T03:28:52.235Z,93.10
2018-02-25T03:31:18.842Z,92.80
2018-02-25T03:33:45.011Z,92.90
2018-02-25T03:36:11.226Z,92.90
2018-02-25T03:38:37.446Z,92.90
2018-02-25T03:41:04.408Z,93.30
2018-02-25T03:43:30.581Z,93.30
2018-02-25T03:45:57.020Z,93.10
2018-02-25T03:48:23.212Z,93.30
2018-02-25T03:50:49.406Z,93.30
2018-02-25T03:53:16.370Z,92.50
2018-02-25T03:55:42.584Z,92.50
2018-02-25T03:58:09.495Z,92.60
2018-02-25T04:00:35.671Z,92.60
2018-02-25T04:03:01.851Z,93.40
2018-02-25T04:05:28.023Z,93.20
2018-02-25T04:07:54.201Z,93.10
2018-02-25T04:10:20.411Z,93.00
2018-02-25T04:12:46.603Z,92.90
2018-02-25T04:15:12.826Z,93.70
2018-02-25T04:17:39.046Z,93.40
2018-02-25T04:20:05.238Z,94.40
2018-02-25T04:22:31.388Z,93.60
2018-02-25T04:24:58.320Z,94.10
2018-02-25T04:27:25.274Z,94.60
2018-02-25T04:29:52.199Z,93.60
2018-02-25T04:32:18.378Z,93.50
2018-02-25T04:34:44.605Z,94.00
2018-02-25T04:37:10.775Z,93.90
2018-02-25T04:39:36.971Z,93.80
2018-02-25T04:42:03.132Z,93.90
2018-02-25T04:44:29.371Z,93.60
2018-02-25T04:46:56.308Z,93.50
2018-02-25T04:49:23.267Z,94.20
2018-02-25T04:51:49.444Z,94.20
2018-02-25T04:54:15.702Z,94.70
2018-02-25T04:56:41.863Z,93.50
2018-02-25T04:59:08.078Z,94.20
2018-02-25T05:01:34.290Z,93.70
2018-02-25T05:04:01.232Z,94.10
2018-02-25T05:06:27.441Z,94.10
2018-02-25T05:09:00.724Z,94.90
2018-02-25T05:11:26.993Z,94.00
2018-02-25T05:13:53.180Z,94.50
2018-02-25T05:16:19.395Z,94.10
2018-02-25T05:18:45.559Z,94.60
2018-02-25T05:21:12.858Z,94.40
2018-02-25T05:23:39.106Z,94.40
2018-02-25T05:26:05.332Z,93.80
2018-02-25T05:28:31.576Z,94.10
2018-02-25T05:30:57.756Z,93.80
2018-02-25T05:33:23.954Z,95.40
2018-02-25T05:35:50.898Z,95.40
2018-02-25T05:38:17.831Z,94.30
2018-02-25T05:40:44.802Z,94.80
2018-02-25T05:43:11.718Z,94.60
2018-02-25T05:45:38.669Z,94.20
2018-02-25T05:48:05.590Z,93.90
2018-02-25T05:50:31.851Z,93.90
2018-02-25T05:52:58.056Z,94.30
2018-02-25T05:55:24.292Z,94.90
2018-02-25T05:57:50.478Z,95.00
2018-02-25T06:00:16.687Z,94.50
2018-02-25T06:02:42.895Z,94.60
2018-02-25T06:05:09.056Z,94.90
2018-02-25T06:07:35.231Z,95.10
2018-02-25T06:10:01.400Z,94.90
2018-02-25T06:12:27.595Z,95.00
2018-02-25T06:14:53.801Z,94.90
2018-02-25T06:17:20.696Z,94.70
2018-02-25T06:19:46.889Z,94.70
2018-02-25T06:22:13.063Z,94.70
2018-02-25T06:24:39.248Z,95.20
2018-02-25T06:27:05.468Z,95.40
2018-02-25T06:29:31.688Z,95.10
2018-02-25T06:31:58.644Z,95.00
2018-02-25T06:34:24.832Z,95.00
2018-02-25T06:36:51.075Z,95.00
2018-02-25T06:39:17.252Z,95.60
2018-02-25T06:41:43.481Z,95.30
2018-02-25T06:44:09.666Z,95.30
2018-02-25T06:46:35.895Z,95.70
2018-02-25T06:49:02.899Z,94.80
2018-02-25T06:51:29.080Z,94.80
2018-02-25T06:53:55.316Z,94.80
2018-02-25T06:56:21.484Z,95.20
2018-02-25T06:58:47.735Z,95.30
2018-02-25T07:01:14.660Z,95.70
2018-02-25T07:03:40.913Z,95.60
2018-02-25T07:06:07.869Z,95.70
2018-02-25T07:08:34.059Z,95.70
2018-02-25T07:11:00.254Z,95.60
2018-02-25T07:13:26.433Z,95.50
2018-02-25T07:15:53.392Z,95.50
2018-02-25T07:18:20.264Z,95.40
2018-02-25T07:20:46.456Z,95.30
2018-02-25T07:23:13.376Z,95.50
2018-02-25T07:25:39.588Z,95.50
2018-02-25T07:28:05.798Z,95.30
2018-02-25T07:30:31.954Z,95.20
2018-02-25T07:32:58.119Z,95.00
2018-02-25T07:35:24.304Z,95.80
2018-02-25T07:37:50.528Z,95.30
2018-02-25T07:40:17.472Z,95.00
2018-02-25T07:42:43.671Z,94.70
2018-02-25T07:45:09.832Z,95.20
2018-02-25T07:47:36.024Z,94.80
2018-02-25T07:50:02.255Z,94.50
2018-02-25T07:52:28.495Z,94.60
2018-02-25T07:54:54.709Z,94.60
2018-02-25T07:57:20.864Z,94.20
2018-02-25T07:59:47.141Z,93.50
2018-02-25T08:02:13.316Z,93.90
2018-02-25T08:04:40.263Z,93.30
2018-02-25T08:07:07.243Z,92.80
2018-02-25T08:09:33.399Z,92.80
2018-02-25T08:11:59.595Z,92.50
2018-02-25T08:14:25.788Z,92.80
2018-02-25T08:16:52.093Z,92.40
2018-02-25T08:19:19.145Z,92.10
2018-02-25T08:21:45.331Z,92.10
2018-02-25T08:24:11.571Z,92.40
2018-02-25T08:26:37.744Z,92.90
2018-02-25T08:29:03.936Z,92.90
2018-02-25T08:31:30.116Z,93.20
2018-02-25T08:33:57.633Z,92.70
2018-02-25T08:36:23.948Z,92.70
2018-02-25T08:38:50.211Z,93.50
2018-02-25T08:41:16.388Z,92.40
2018-02-25T08:43:42.713Z,92.10
2018-02-25T08:46:08.966Z,91.90
2018-02-25T08:48:35.203Z,92.10
2018-02-25T08:51:02.429Z,93.50
2018-02-25T08:53:28.616Z,93.40
2018-02-25T08:55:56.590Z,89.70
2018-02-25T08:58:23.537Z,89.60
2018-02-25T09:00:49.726Z,89.70
2018-02-25T09:03:15.883Z,90.00
2018-02-25T09:05:42.876Z,89.70
2018-02-25T09:08:09.027Z,87.30
2018-02-25T09:10:35.192Z,87.60
2018-02-25T09:13:02.136Z,88.20
2018-02-25T09:15:28.295Z,88.10
2018-02-25T09:17:54.501Z,89.10
2018-02-25T09:20:20.677Z,89.10
2018-02-25T09:22:46.867Z,89.70
2018-02-25T09:25:13.011Z,88.40
2018-02-25T09:27:39.166Z,88.20
2018-02-25T09:30:05.368Z,85.60
2018-02-25T09:32:32.292Z,85.60
2018-02-25T09:34:58.524Z,85.50
2018-02-25T09:37:24.705Z,86.50
2018-02-25T09:39:51.642Z,84.80
2018-02-25T09:42:17.800Z,84.70
2018-02-25T09:44:44.034Z,84.60
2018-02-25T09:47:10.294Z,84.10
2018-02-25T09:49:36.499Z,84.80
2018-02-25T09:52:02.892Z,83.70
2018-02-25T09:54:29.160Z,82.40
2018-02-25T09:56:55.385Z,82.40
2018-02-25T09:59:21.717Z,82.30
2018-02-25T10:01:48.040Z,81.30
2018-02-25T10:04:14.462Z,81.30
2018-02-25T10:06:40.690Z,80.90
2018-02-25T10:09:06.856Z,81.40
2018-02-25T10:11:33.586Z,79.70
2018-02-25T10:14:00.562Z,79.60
2018-02-25T10:16:27.463Z,80.40
2018-02-25T10:18:53.647Z,80.10
2018-02-25T10:21:20.961Z,80.00
2018-02-25T10:23:47.221Z,80.00
2018-02-25T10:26:14.154Z,80.60
2018-02-25T10:28:40.405Z,80.50
2018-02-25T10:31:06.587Z,78.50
2018-02-25T10:33:32.861Z,78.50
2018-02-25T10:35:59.979Z,78.10
2018-02-25T10:38:26.294Z,78.10
2018-02-25T10:40:53.436Z,74.10
2018-02-25T10:43:20.448Z,60.10
2018-02-25T10:45:46.654Z,60.00
2018-02-25T10:48:13.597Z,43.90
2018-02-25T10:50:39.827Z,43.80
2018-02-25T10:53:06.083Z,45.30
2018-02-25T10:55:32.346Z,42.40
2018-02-25T10:57:58.537Z,45.50
